sensor_id;sensor_type;location;lat;lon;timestamp;P1;durP1;ratioP1;P2;durP2;ratioP2
15502;SDS011;7853;52.186;5.948;2022-11-14T00:03:02;23.13;;;13.62;;
15502;SDS011;7853;52.186;5.948;2022-11-14T00:03:02;22.19;;;13.36;;
15502;SDS011;7853;52.186;5.948;2022-11-14T00:03:02;21.77;;;13.31;;
15502;SDS011;7853;52.186;5.948;2022-11-14T00:03:54;21.49;;;13.36;;
15502;SDS011;7853;52.186;5.948;2022-11-14T00:04:47;22.05;;;13.81;;
15502;SDS011;7853;52.186;5.948;2022-11-14T00:05:41;23.05;;;13.37;;
15502;SDS011;7853;52.186;5.948;2022-11-14T00:06:37;22.68;;;13.68;;
15502;SDS011;7853;52.186;5.948;2022-11-14T00:07:35;21.96;;;13.99;;
15502;SDS011;7853;52.186;5.948;2022-11-14T00:08:34;21.96;;;13.46;;
15502;SDS011;7853;52.186;5.948;2022-11-14T00:09:34;21.65;;;13.31;;
15502;SDS011;7853;52.186;5.948;2022-11-14T00:10:33;21.51;;;13.58;;
15502;SDS011;7853;52.186;5.948;2022-11-14T00:11:33;22.44;;;13.84;;
15502;SDS011;7853;52.186;5.948;2022-11-14T00:12:33;22.83;;;13.94;;
15502;SDS011;7853;52.186;5.948;2022-11-14T00:13:34;22.53;;;13.68;;
15502;SDS011;7853;52.186;5.948;2022-11-14T00:14:33;24.43;;;14.15;;
15502;SDS011;7853;52.186;5.948;2022-11-14T00:15:33;22.74;;;14.22;;
15502;SDS011;7853;52.186;5.948;2022-11-14T00:16:34;23.44;;;13.70;;
15502;SDS011;7853;52.186;5.948;2022-11-14T00:17:34;22.62;;;13.49;;
15502;SDS011;7853;52.186;5.948;2022-11-14T00:18:33;22.86;;;13.41;;
15502;SDS011;7853;52.186;5.948;2022-11-14T00:19:34;23.46;;;13.76;;
15502;SDS011;7853;52.186;5.948;2022-11-14T00:20:34;22.50;;;13.87;;
15502;SDS011;7853;52.186;5.948;2022-11-14T00:21:34;24.04;;;14.22;;
15502;SDS011;7853;52.186;5.948;2022-11-14T00:22:34;23.63;;;14.16;;
15502;SDS011;7853;52.186;5.948;2022-11-14T00:23:34;22.60;;;13.15;;
15502;SDS011;7853;52.186;5.948;2022-11-14T00:24:34;22.14;;;13.72;;
15502;SDS011;7853;52.186;5.948;2022-11-14T00:25:34;21.99;;;13.76;;
15502;SDS011;7853;52.186;5.948;2022-11-14T00:26:34;24.62;;;13.93;;
15502;SDS011;7853;52.186;5.948;2022-11-14T00:27:34;24.40;;;13.81;;
15502;SDS011;7853;52.186;5.948;2022-11-14T00:28:34;23.89;;;13.98;;
15502;SDS011;7853;52.186;5.948;2022-11-14T00:29:34;23.71;;;13.63;;
15502;SDS011;7853;52.186;5.948;2022-11-14T00:30:34;24.15;;;13.62;;
15502;SDS011;7853;52.186;5.948;2022-11-14T00:31:34;24.18;;;14.19;;
15502;SDS011;7853;52.186;5.948;2022-11-14T00:32:34;22.63;;;13.69;;
15502;SDS011;7853;52.186;5.948;2022-11-14T00:33:34;22.84;;;13.75;;
15502;SDS011;7853;52.186;5.948;2022-11-14T00:34:34;23.96;;;13.75;;
15502;SDS011;7853;52.186;5.948;2022-11-14T00:35:34;23.28;;;13.94;;
15502;SDS011;7853;52.186;5.948;2022-11-14T00:36:35;23.13;;;13.91;;
15502;SDS011;7853;52.186;5.948;2022-11-14T00:37:34;25.63;;;14.16;;
15502;SDS011;7853;52.186;5.948;2022-11-14T00:38:34;22.93;;;13.70;;
15502;SDS011;7853;52.186;5.948;2022-11-14T00:39:34;22.59;;;13.77;;
15502;SDS011;7853;52.186;5.948;2022-11-14T00:40:34;23.04;;;13.50;;
15502;SDS011;7853;52.186;5.948;2022-11-14T00:41:34;23.15;;;13.28;;
15502;SDS011;7853;52.186;5.948;2022-11-14T00:42:34;23.02;;;13.71;;
15502;SDS011;7853;52.186;5.948;2022-11-14T00:43:34;22.94;;;13.96;;
15502;SDS011;7853;52.186;5.948;2022-11-14T00:44:34;24.07;;;13.88;;
15502;SDS011;7853;52.186;5.948;2022-11-14T00:45:34;24.47;;;13.51;;
15502;SDS011;7853;52.186;5.948;2022-11-14T00:46:34;24.88;;;14.09;;
15502;SDS011;7853;52.186;5.948;2022-11-14T00:47:34;23.96;;;14.14;;
15502;SDS011;7853;52.186;5.948;2022-11-14T00:48:34;24.68;;;14.43;;
15502;SDS011;7853;52.186;5.948;2022-11-14T00:49:34;24.61;;;14.84;;
15502;SDS011;7853;52.186;5.948;2022-11-14T00:50:34;26.05;;;14.77;;
15502;SDS011;7853;52.186;5.948;2022-11-14T00:51:34;24.62;;;14.47;;
15502;SDS011;7853;52.186;5.948;2022-11-14T00:52:34;25.47;;;14.87;;
15502;SDS011;7853;52.186;5.948;2022-11-14T00:53:34;23.91;;;13.93;;
15502;SDS011;7853;52.186;5.948;2022-11-14T00:54:34;23.23;;;13.91;;
15502;SDS011;7853;52.186;5.948;2022-11-14T00:55:34;24.09;;;14.40;;
15502;SDS011;7853;52.186;5.948;2022-11-14T00:56:34;24.46;;;14.15;;
15502;SDS011;7853;52.186;5.948;2022-11-14T00:57:34;26.01;;;14.60;;
15502;SDS011;7853;52.186;5.948;2022-11-14T00:58:34;24.36;;;13.93;;
15502;SDS011;7853;52.186;5.948;2022-11-14T00:59:34;24.00;;;14.21;;
15502;SDS011;7853;52.186;5.948;2022-11-14T01:00:34;23.43;;;13.92;;
15502;SDS011;7853;52.186;5.948;2022-11-14T01:01:34;23.54;;;13.94;;
15502;SDS011;7853;52.186;5.948;2022-11-14T01:02:34;23.05;;;14.11;;
15502;SDS011;7853;52.186;5.948;2022-11-14T01:03:35;25.19;;;14.59;;
15502;SDS011;7853;52.186;5.948;2022-11-14T01:04:35;25.04;;;14.43;;
15502;SDS011;7853;52.186;5.948;2022-11-14T01:05:39;24.83;;;14.58;;
15502;SDS011;7853;52.186;5.948;2022-11-14T01:06:34;25.09;;;14.68;;
15502;SDS011;7853;52.186;5.948;2022-11-14T01:07:34;24.73;;;14.59;;
15502;SDS011;7853;52.186;5.948;2022-11-14T01:08:34;26.64;;;14.47;;
15502;SDS011;7853;52.186;5.948;2022-11-14T01:09:35;24.63;;;14.28;;
15502;SDS011;7853;52.186;5.948;2022-11-14T01:10:37;23.79;;;14.05;;
15502;SDS011;7853;52.186;5.948;2022-11-14T01:11:34;23.74;;;14.17;;
15502;SDS011;7853;52.186;5.948;2022-11-14T01:12:34;24.07;;;14.38;;
15502;SDS011;7853;52.186;5.948;2022-11-14T01:13:34;23.82;;;13.73;;
15502;SDS011;7853;52.186;5.948;2022-11-14T01:14:35;25.46;;;14.59;;
15502;SDS011;7853;52.186;5.948;2022-11-14T01:15:37;25.70;;;14.59;;
15502;SDS011;7853;52.186;5.948;2022-11-14T01:16:34;23.77;;;13.67;;
15502;SDS011;7853;52.186;5.948;2022-11-14T01:17:34;23.94;;;13.84;;
15502;SDS011;7853;52.186;5.948;2022-11-14T01:18:35;24.42;;;14.32;;
15502;SDS011;7853;52.186;5.948;2022-11-14T01:19:34;25.48;;;14.79;;
15502;SDS011;7853;52.186;5.948;2022-11-14T01:20:36;23.50;;;14.02;;
15502;SDS011;7853;52.186;5.948;2022-11-14T01:21:34;23.27;;;13.92;;
15502;SDS011;7853;52.186;5.948;2022-11-14T01:22:34;25.46;;;14.32;;
15502;SDS011;7853;52.186;5.948;2022-11-14T01:23:35;24.84;;;14.32;;
15502;SDS011;7853;52.186;5.948;2022-11-14T01:24:35;23.71;;;14.37;;
15502;SDS011;7853;52.186;5.948;2022-11-14T01:25:35;23.01;;;13.42;;
15502;SDS011;7853;52.186;5.948;2022-11-14T01:26:34;23.92;;;14.26;;
15502;SDS011;7853;52.186;5.948;2022-11-14T01:27:34;23.84;;;14.56;;
15502;SDS011;7853;52.186;5.948;2022-11-14T01:28:35;24.63;;;14.01;;
15502;SDS011;7853;52.186;5.948;2022-11-14T01:29:34;23.67;;;13.42;;
15502;SDS011;7853;52.186;5.948;2022-11-14T01:30:35;24.23;;;13.90;;
15502;SDS011;7853;52.186;5.948;2022-11-14T01:31:34;24.35;;;13.66;;
15502;SDS011;7853;52.186;5.948;2022-11-14T01:32:34;25.91;;;14.70;;
15502;SDS011;7853;52.186;5.948;2022-11-14T01:33:34;23.32;;;14.00;;
15502;SDS011;7853;52.186;5.948;2022-11-14T01:34:34;23.78;;;13.78;;
15502;SDS011;7853;52.186;5.948;2022-11-14T01:35:35;22.74;;;13.59;;
15502;SDS011;7853;52.186;5.948;2022-11-14T01:36:35;23.86;;;14.27;;
15502;SDS011;7853;52.186;5.948;2022-11-14T01:37:34;24.09;;;13.69;;
15502;SDS011;7853;52.186;5.948;2022-11-14T01:38:35;24.81;;;14.22;;
15502;SDS011;7853;52.186;5.948;2022-11-14T01:39:35;23.83;;;14.00;;
15502;SDS011;7853;52.186;5.948;2022-11-14T01:40:39;22.96;;;13.58;;
15502;SDS011;7853;52.186;5.948;2022-11-14T01:41:35;22.92;;;13.45;;
15502;SDS011;7853;52.186;5.948;2022-11-14T01:42:34;24.86;;;14.24;;
15502;SDS011;7853;52.186;5.948;2022-11-14T01:43:35;25.14;;;14.05;;
15502;SDS011;7853;52.186;5.948;2022-11-14T01:44:37;24.37;;;13.92;;
15502;SDS011;7853;52.186;5.948;2022-11-14T01:45:51;24.10;;;13.95;;
15502;SDS011;7853;52.186;5.948;2022-11-14T01:46:48;23.85;;;13.74;;
15502;SDS011;7853;52.186;5.948;2022-11-14T01:47:41;25.10;;;14.18;;
15502;SDS011;7853;52.186;5.948;2022-11-14T01:48:38;22.50;;;13.73;;
15502;SDS011;7853;52.186;5.948;2022-11-14T01:49:37;24.69;;;14.23;;
15502;SDS011;7853;52.186;5.948;2022-11-14T01:50:34;25.11;;;14.00;;
15502;SDS011;7853;52.186;5.948;2022-11-14T01:51:35;23.91;;;13.66;;
15502;SDS011;7853;52.186;5.948;2022-11-14T01:52:34;23.84;;;13.66;;
15502;SDS011;7853;52.186;5.948;2022-11-14T01:53:34;23.59;;;14.14;;
15502;SDS011;7853;52.186;5.948;2022-11-14T01:54:35;22.74;;;13.44;;
15502;SDS011;7853;52.186;5.948;2022-11-14T01:55:34;23.46;;;13.50;;
15502;SDS011;7853;52.186;5.948;2022-11-14T01:56:35;21.06;;;13.17;;
15502;SDS011;7853;52.186;5.948;2022-11-14T01:57:36;24.03;;;13.53;;
15502;SDS011;7853;52.186;5.948;2022-11-14T01:58:34;23.06;;;13.24;;
15502;SDS011;7853;52.186;5.948;2022-11-14T01:59:34;22.88;;;13.22;;
15502;SDS011;7853;52.186;5.948;2022-11-14T02:00:34;24.83;;;14.11;;
15502;SDS011;7853;52.186;5.948;2022-11-14T02:01:36;23.95;;;13.97;;
15502;SDS011;7853;52.186;5.948;2022-11-14T02:02:34;24.22;;;13.82;;
15502;SDS011;7853;52.186;5.948;2022-11-14T02:03:35;21.46;;;13.07;;
15502;SDS011;7853;52.186;5.948;2022-11-14T02:04:35;24.06;;;14.11;;
15502;SDS011;7853;52.186;5.948;2022-11-14T02:05:34;23.59;;;13.87;;
15502;SDS011;7853;52.186;5.948;2022-11-14T02:06:34;23.42;;;13.40;;
15502;SDS011;7853;52.186;5.948;2022-11-14T02:07:35;21.92;;;13.60;;
15502;SDS011;7853;52.186;5.948;2022-11-14T02:08:34;22.61;;;13.50;;
15502;SDS011;7853;52.186;5.948;2022-11-14T02:09:35;23.81;;;13.44;;
15502;SDS011;7853;52.186;5.948;2022-11-14T02:10:34;23.29;;;13.31;;
15502;SDS011;7853;52.186;5.948;2022-11-14T02:11:35;22.88;;;13.43;;
15502;SDS011;7853;52.186;5.948;2022-11-14T02:12:35;22.90;;;13.36;;
15502;SDS011;7853;52.186;5.948;2022-11-14T02:13:34;22.89;;;13.47;;
15502;SDS011;7853;52.186;5.948;2022-11-14T02:14:34;22.92;;;13.75;;
15502;SDS011;7853;52.186;5.948;2022-11-14T02:15:34;23.58;;;13.50;;
15502;SDS011;7853;52.186;5.948;2022-11-14T02:16:34;24.05;;;13.58;;
15502;SDS011;7853;52.186;5.948;2022-11-14T02:17:34;24.27;;;13.78;;
15502;SDS011;7853;52.186;5.948;2022-11-14T02:18:34;24.04;;;13.44;;
15502;SDS011;7853;52.186;5.948;2022-11-14T02:19:43;24.29;;;13.85;;
15502;SDS011;7853;52.186;5.948;2022-11-14T02:20:35;23.18;;;13.68;;
15502;SDS011;7853;52.186;5.948;2022-11-14T02:21:34;24.12;;;13.89;;
15502;SDS011;7853;52.186;5.948;2022-11-14T02:22:34;23.51;;;13.72;;
15502;SDS011;7853;52.186;5.948;2022-11-14T02:23:34;24.06;;;13.48;;
15502;SDS011;7853;52.186;5.948;2022-11-14T02:24:34;23.41;;;13.41;;
15502;SDS011;7853;52.186;5.948;2022-11-14T02:25:34;22.91;;;13.36;;
15502;SDS011;7853;52.186;5.948;2022-11-14T02:26:34;22.89;;;13.55;;
15502;SDS011;7853;52.186;5.948;2022-11-14T02:27:34;22.24;;;12.90;;
15502;SDS011;7853;52.186;5.948;2022-11-14T02:28:34;23.07;;;13.42;;
15502;SDS011;7853;52.186;5.948;2022-11-14T02:29:34;23.33;;;13.15;;
15502;SDS011;7853;52.186;5.948;2022-11-14T02:30:34;22.47;;;13.08;;
15502;SDS011;7853;52.186;5.948;2022-11-14T02:31:34;23.02;;;13.33;;
15502;SDS011;7853;52.186;5.948;2022-11-14T02:32:34;23.45;;;13.32;;
15502;SDS011;7853;52.186;5.948;2022-11-14T02:33:34;24.65;;;13.25;;
15502;SDS011;7853;52.186;5.948;2022-11-14T02:34:35;22.63;;;12.85;;
15502;SDS011;7853;52.186;5.948;2022-11-14T02:35:34;22.89;;;13.37;;
15502;SDS011;7853;52.186;5.948;2022-11-14T02:36:34;22.70;;;13.45;;
15502;SDS011;7853;52.186;5.948;2022-11-14T02:37:34;23.08;;;13.58;;
15502;SDS011;7853;52.186;5.948;2022-11-14T02:38:34;24.85;;;13.60;;
15502;SDS011;7853;52.186;5.948;2022-11-14T02:39:34;23.99;;;13.43;;
15502;SDS011;7853;52.186;5.948;2022-11-14T02:40:34;22.85;;;13.09;;
15502;SDS011;7853;52.186;5.948;2022-11-14T02:41:34;23.75;;;13.12;;
15502;SDS011;7853;52.186;5.948;2022-11-14T02:42:34;24.03;;;13.00;;
15502;SDS011;7853;52.186;5.948;2022-11-14T02:43:34;23.28;;;13.10;;
15502;SDS011;7853;52.186;5.948;2022-11-14T02:44:34;23.71;;;13.48;;
15502;SDS011;7853;52.186;5.948;2022-11-14T02:45:34;21.98;;;13.24;;
15502;SDS011;7853;52.186;5.948;2022-11-14T02:46:35;22.48;;;12.97;;
15502;SDS011;7853;52.186;5.948;2022-11-14T02:47:34;24.56;;;13.38;;
15502;SDS011;7853;52.186;5.948;2022-11-14T02:48:34;23.61;;;13.60;;
15502;SDS011;7853;52.186;5.948;2022-11-14T02:49:34;23.48;;;13.66;;
15502;SDS011;7853;52.186;5.948;2022-11-14T02:50:34;24.65;;;13.82;;
15502;SDS011;7853;52.186;5.948;2022-11-14T02:51:34;22.92;;;13.60;;
15502;SDS011;7853;52.186;5.948;2022-11-14T02:52:34;22.97;;;13.23;;
15502;SDS011;7853;52.186;5.948;2022-11-14T02:53:35;22.11;;;12.83;;
15502;SDS011;7853;52.186;5.948;2022-11-14T02:54:35;23.72;;;13.17;;
15502;SDS011;7853;52.186;5.948;2022-11-14T02:55:34;22.71;;;13.09;;
15502;SDS011;7853;52.186;5.948;2022-11-14T02:56:34;23.15;;;13.14;;
15502;SDS011;7853;52.186;5.948;2022-11-14T02:57:34;23.08;;;13.53;;
15502;SDS011;7853;52.186;5.948;2022-11-14T02:58:34;23.12;;;12.97;;
15502;SDS011;7853;52.186;5.948;2022-11-14T02:59:34;23.17;;;12.92;;
15502;SDS011;7853;52.186;5.948;2022-11-14T03:00:34;23.59;;;13.10;;
15502;SDS011;7853;52.186;5.948;2022-11-14T03:01:34;24.84;;;13.97;;
15502;SDS011;7853;52.186;5.948;2022-11-14T03:02:34;23.38;;;13.20;;
15502;SDS011;7853;52.186;5.948;2022-11-14T03:03:35;22.63;;;13.73;;
15502;SDS011;7853;52.186;5.948;2022-11-14T03:04:34;23.89;;;13.56;;
15502;SDS011;7853;52.186;5.948;2022-11-14T03:05:34;24.18;;;13.50;;
15502;SDS011;7853;52.186;5.948;2022-11-14T03:06:34;24.49;;;13.63;;
15502;SDS011;7853;52.186;5.948;2022-11-14T03:07:35;24.20;;;13.61;;
15502;SDS011;7853;52.186;5.948;2022-11-14T03:08:34;22.91;;;13.72;;
15502;SDS011;7853;52.186;5.948;2022-11-14T03:09:35;23.54;;;13.22;;
15502;SDS011;7853;52.186;5.948;2022-11-14T03:10:35;23.18;;;13.53;;
15502;SDS011;7853;52.186;5.948;2022-11-14T03:11:35;23.80;;;13.78;;
15502;SDS011;7853;52.186;5.948;2022-11-14T03:12:35;23.45;;;13.24;;
15502;SDS011;7853;52.186;5.948;2022-11-14T03:13:35;23.09;;;13.10;;
15502;SDS011;7853;52.186;5.948;2022-11-14T03:14:35;23.56;;;13.27;;
15502;SDS011;7853;52.186;5.948;2022-11-14T03:15:35;23.22;;;13.10;;
15502;SDS011;7853;52.186;5.948;2022-11-14T03:16:35;23.06;;;13.39;;
15502;SDS011;7853;52.186;5.948;2022-11-14T03:17:35;24.66;;;13.17;;
15502;SDS011;7853;52.186;5.948;2022-11-14T03:18:35;24.02;;;13.07;;
15502;SDS011;7853;52.186;5.948;2022-11-14T03:19:35;23.70;;;12.98;;
15502;SDS011;7853;52.186;5.948;2022-11-14T03:20:35;24.57;;;13.20;;
15502;SDS011;7853;52.186;5.948;2022-11-14T03:21:35;24.01;;;13.13;;
15502;SDS011;7853;52.186;5.948;2022-11-14T03:22:35;25.72;;;13.87;;
15502;SDS011;7853;52.186;5.948;2022-11-14T03:23:35;24.92;;;13.90;;
15502;SDS011;7853;52.186;5.948;2022-11-14T03:24:35;27.05;;;13.46;;
15502;SDS011;7853;52.186;5.948;2022-11-14T03:25:35;25.69;;;14.05;;
15502;SDS011;7853;52.186;5.948;2022-11-14T03:26:35;26.60;;;13.81;;
15502;SDS011;7853;52.186;5.948;2022-11-14T03:27:35;26.20;;;13.58;;
15502;SDS011;7853;52.186;5.948;2022-11-14T03:28:35;26.22;;;13.46;;
15502;SDS011;7853;52.186;5.948;2022-11-14T03:29:35;27.31;;;13.64;;
15502;SDS011;7853;52.186;5.948;2022-11-14T03:30:35;26.24;;;14.15;;
15502;SDS011;7853;52.186;5.948;2022-11-14T03:31:35;26.73;;;13.93;;
15502;SDS011;7853;52.186;5.948;2022-11-14T03:32:35;29.13;;;14.54;;
15502;SDS011;7853;52.186;5.948;2022-11-14T03:33:35;27.85;;;14.36;;
15502;SDS011;7853;52.186;5.948;2022-11-14T03:34:35;27.31;;;14.42;;
15502;SDS011;7853;52.186;5.948;2022-11-14T03:35:35;27.57;;;14.53;;
15502;SDS011;7853;52.186;5.948;2022-11-14T03:36:35;27.09;;;14.32;;
15502;SDS011;7853;52.186;5.948;2022-11-14T03:37:35;27.08;;;13.72;;
15502;SDS011;7853;52.186;5.948;2022-11-14T03:38:35;27.68;;;14.03;;
15502;SDS011;7853;52.186;5.948;2022-11-14T03:39:35;28.46;;;14.62;;
15502;SDS011;7853;52.186;5.948;2022-11-14T03:40:38;27.90;;;13.94;;
15502;SDS011;7853;52.186;5.948;2022-11-14T03:41:35;27.94;;;14.68;;
15502;SDS011;7853;52.186;5.948;2022-11-14T03:42:35;27.73;;;14.59;;
15502;SDS011;7853;52.186;5.948;2022-11-14T03:43:35;27.11;;;14.44;;
15502;SDS011;7853;52.186;5.948;2022-11-14T03:44:35;27.46;;;14.48;;
15502;SDS011;7853;52.186;5.948;2022-11-14T03:45:35;27.35;;;14.19;;
15502;SDS011;7853;52.186;5.948;2022-11-14T03:46:35;27.15;;;14.47;;
15502;SDS011;7853;52.186;5.948;2022-11-14T03:47:35;26.53;;;14.08;;
15502;SDS011;7853;52.186;5.948;2022-11-14T03:48:35;28.42;;;14.67;;
15502;SDS011;7853;52.186;5.948;2022-11-14T03:49:35;26.99;;;14.02;;
15502;SDS011;7853;52.186;5.948;2022-11-14T03:50:35;26.38;;;13.91;;
15502;SDS011;7853;52.186;5.948;2022-11-14T03:51:35;24.31;;;13.88;;
15502;SDS011;7853;52.186;5.948;2022-11-14T03:52:35;26.41;;;14.22;;
15502;SDS011;7853;52.186;5.948;2022-11-14T03:53:35;25.81;;;13.76;;
15502;SDS011;7853;52.186;5.948;2022-11-14T03:54:35;23.45;;;13.15;;
15502;SDS011;7853;52.186;5.948;2022-11-14T03:55:35;23.96;;;12.95;;
15502;SDS011;7853;52.186;5.948;2022-11-14T03:56:35;22.19;;;12.52;;
15502;SDS011;7853;52.186;5.948;2022-11-14T03:57:35;24.43;;;13.22;;
15502;SDS011;7853;52.186;5.948;2022-11-14T03:58:35;25.21;;;13.68;;
15502;SDS011;7853;52.186;5.948;2022-11-14T03:59:35;24.42;;;13.58;;
15502;SDS011;7853;52.186;5.948;2022-11-14T04:00:35;22.53;;;12.33;;
15502;SDS011;7853;52.186;5.948;2022-11-14T04:01:35;24.43;;;12.77;;
15502;SDS011;7853;52.186;5.948;2022-11-14T04:02:35;23.87;;;13.02;;
15502;SDS011;7853;52.186;5.948;2022-11-14T04:03:35;22.54;;;12.70;;
15502;SDS011;7853;52.186;5.948;2022-11-14T04:04:35;21.62;;;12.21;;
15502;SDS011;7853;52.186;5.948;2022-11-14T04:05:35;21.94;;;12.62;;
15502;SDS011;7853;52.186;5.948;2022-11-14T04:06:35;21.70;;;12.40;;
15502;SDS011;7853;52.186;5.948;2022-11-14T04:07:35;21.97;;;12.18;;
15502;SDS011;7853;52.186;5.948;2022-11-14T04:08:35;22.60;;;12.53;;
15502;SDS011;7853;52.186;5.948;2022-11-14T04:09:35;23.71;;;12.38;;
15502;SDS011;7853;52.186;5.948;2022-11-14T04:10:35;22.88;;;12.85;;
15502;SDS011;7853;52.186;5.948;2022-11-14T04:11:35;22.96;;;12.39;;
15502;SDS011;7853;52.186;5.948;2022-11-14T04:12:35;22.86;;;12.17;;
15502;SDS011;7853;52.186;5.948;2022-11-14T04:13:35;20.99;;;12.11;;
15502;SDS011;7853;52.186;5.948;2022-11-14T04:14:35;22.56;;;12.88;;
15502;SDS011;7853;52.186;5.948;2022-11-14T04:15:35;23.30;;;12.73;;
15502;SDS011;7853;52.186;5.948;2022-11-14T04:16:35;21.89;;;12.48;;
15502;SDS011;7853;52.186;5.948;2022-11-14T04:17:35;20.55;;;11.83;;
15502;SDS011;7853;52.186;5.948;2022-11-14T04:18:35;19.95;;;11.45;;
15502;SDS011;7853;52.186;5.948;2022-11-14T04:19:35;21.48;;;11.85;;
15502;SDS011;7853;52.186;5.948;2022-11-14T04:20:35;21.11;;;11.85;;
15502;SDS011;7853;52.186;5.948;2022-11-14T04:21:35;21.44;;;12.07;;
15502;SDS011;7853;52.186;5.948;2022-11-14T04:22:35;21.59;;;11.91;;
15502;SDS011;7853;52.186;5.948;2022-11-14T04:23:35;20.52;;;11.79;;
15502;SDS011;7853;52.186;5.948;2022-11-14T04:24:35;19.90;;;11.66;;
15502;SDS011;7853;52.186;5.948;2022-11-14T04:25:35;18.82;;;10.96;;
15502;SDS011;7853;52.186;5.948;2022-11-14T04:26:35;20.08;;;11.53;;
15502;SDS011;7853;52.186;5.948;2022-11-14T04:27:35;20.96;;;11.49;;
15502;SDS011;7853;52.186;5.948;2022-11-14T04:28:35;18.91;;;10.87;;
15502;SDS011;7853;52.186;5.948;2022-11-14T04:29:35;17.18;;;10.26;;
15502;SDS011;7853;52.186;5.948;2022-11-14T04:30:35;18.75;;;10.94;;
15502;SDS011;7853;52.186;5.948;2022-11-14T04:31:35;18.63;;;11.23;;
15502;SDS011;7853;52.186;5.948;2022-11-14T04:32:35;20.76;;;11.81;;
15502;SDS011;7853;52.186;5.948;2022-11-14T04:33:35;19.22;;;11.09;;
15502;SDS011;7853;52.186;5.948;2022-11-14T04:34:35;18.79;;;11.03;;
15502;SDS011;7853;52.186;5.948;2022-11-14T04:35:35;19.13;;;11.36;;
15502;SDS011;7853;52.186;5.948;2022-11-14T04:36:35;18.35;;;11.30;;
15502;SDS011;7853;52.186;5.948;2022-11-14T04:37:35;19.43;;;11.57;;
15502;SDS011;7853;52.186;5.948;2022-11-14T04:38:35;20.68;;;12.12;;
15502;SDS011;7853;52.186;5.948;2022-11-14T04:39:35;18.74;;;11.28;;
15502;SDS011;7853;52.186;5.948;2022-11-14T04:40:35;18.10;;;11.03;;
15502;SDS011;7853;52.186;5.948;2022-11-14T04:41:35;18.50;;;11.31;;
15502;SDS011;7853;52.186;5.948;2022-11-14T04:42:35;17.60;;;10.23;;
15502;SDS011;7853;52.186;5.948;2022-11-14T04:43:35;18.32;;;10.72;;
15502;SDS011;7853;52.186;5.948;2022-11-14T04:44:35;17.93;;;10.67;;
15502;SDS011;7853;52.186;5.948;2022-11-14T04:45:35;17.78;;;10.61;;
15502;SDS011;7853;52.186;5.948;2022-11-14T04:46:35;18.13;;;10.41;;
15502;SDS011;7853;52.186;5.948;2022-11-14T04:47:35;18.58;;;10.93;;
15502;SDS011;7853;52.186;5.948;2022-11-14T04:48:35;18.50;;;11.06;;
15502;SDS011;7853;52.186;5.948;2022-11-14T04:49:35;19.11;;;10.96;;
15502;SDS011;7853;52.186;5.948;2022-11-14T04:50:35;18.53;;;10.73;;
15502;SDS011;7853;52.186;5.948;2022-11-14T04:51:35;17.30;;;10.68;;
15502;SDS011;7853;52.186;5.948;2022-11-14T04:52:35;17.42;;;10.32;;
15502;SDS011;7853;52.186;5.948;2022-11-14T04:53:35;16.72;;;9.96;;
15502;SDS011;7853;52.186;5.948;2022-11-14T04:54:35;16.11;;;9.91;;
15502;SDS011;7853;52.186;5.948;2022-11-14T04:55:35;16.04;;;10.35;;
15502;SDS011;7853;52.186;5.948;2022-11-14T04:56:35;17.05;;;10.26;;
15502;SDS011;7853;52.186;5.948;2022-11-14T04:57:35;16.08;;;10.05;;
15502;SDS011;7853;52.186;5.948;2022-11-14T04:58:35;16.16;;;10.02;;
15502;SDS011;7853;52.186;5.948;2022-11-14T04:59:35;16.65;;;10.49;;
15502;SDS011;7853;52.186;5.948;2022-11-14T05:00:35;15.20;;;9.66;;
15502;SDS011;7853;52.186;5.948;2022-11-14T05:01:35;15.16;;;9.65;;
15502;SDS011;7853;52.186;5.948;2022-11-14T05:02:35;14.63;;;9.14;;
15502;SDS011;7853;52.186;5.948;2022-11-14T05:03:35;16.54;;;10.23;;
15502;SDS011;7853;52.186;5.948;2022-11-14T05:04:35;17.18;;;10.28;;
15502;SDS011;7853;52.186;5.948;2022-11-14T05:05:35;16.35;;;9.42;;
15502;SDS011;7853;52.186;5.948;2022-11-14T05:06:35;15.19;;;9.58;;
15502;SDS011;7853;52.186;5.948;2022-11-14T05:07:34;15.68;;;9.92;;
15502;SDS011;7853;52.186;5.948;2022-11-14T05:08:35;14.17;;;9.29;;
15502;SDS011;7853;52.186;5.948;2022-11-14T05:09:35;13.76;;;9.11;;
15502;SDS011;7853;52.186;5.948;2022-11-14T05:10:35;13.88;;;8.89;;
15502;SDS011;7853;52.186;5.948;2022-11-14T05:11:35;14.57;;;9.56;;
15502;SDS011;7853;52.186;5.948;2022-11-14T05:12:35;15.84;;;9.57;;
15502;SDS011;7853;52.186;5.948;2022-11-14T05:13:35;14.68;;;9.42;;
15502;SDS011;7853;52.186;5.948;2022-11-14T05:14:35;16.12;;;9.25;;
15502;SDS011;7853;52.186;5.948;2022-11-14T05:15:35;15.34;;;9.40;;
15502;SDS011;7853;52.186;5.948;2022-11-14T05:16:34;15.15;;;9.49;;
15502;SDS011;7853;52.186;5.948;2022-11-14T05:17:35;14.21;;;9.23;;
15502;SDS011;7853;52.186;5.948;2022-11-14T05:18:35;14.84;;;9.62;;
15502;SDS011;7853;52.186;5.948;2022-11-14T05:19:35;14.64;;;9.17;;
15502;SDS011;7853;52.186;5.948;2022-11-14T05:20:34;15.78;;;9.58;;
15502;SDS011;7853;52.186;5.948;2022-11-14T05:21:35;13.95;;;8.83;;
15502;SDS011;7853;52.186;5.948;2022-11-14T05:22:35;15.12;;;9.07;;
15502;SDS011;7853;52.186;5.948;2022-11-14T05:23:35;14.57;;;9.02;;
15502;SDS011;7853;52.186;5.948;2022-11-14T05:24:35;15.23;;;9.21;;
15502;SDS011;7853;52.186;5.948;2022-11-14T05:25:35;14.56;;;9.50;;
15502;SDS011;7853;52.186;5.948;2022-11-14T05:26:35;14.48;;;9.33;;
15502;SDS011;7853;52.186;5.948;2022-11-14T05:27:35;14.23;;;9.13;;
15502;SDS011;7853;52.186;5.948;2022-11-14T05:28:35;15.93;;;9.64;;
15502;SDS011;7853;52.186;5.948;2022-11-14T05:29:34;15.62;;;9.58;;
15502;SDS011;7853;52.186;5.948;2022-11-14T05:30:35;15.13;;;9.22;;
15502;SDS011;7853;52.186;5.948;2022-11-14T05:31:35;15.28;;;9.35;;
15502;SDS011;7853;52.186;5.948;2022-11-14T05:32:35;15.34;;;9.33;;
15502;SDS011;7853;52.186;5.948;2022-11-14T05:33:35;15.22;;;9.34;;
15502;SDS011;7853;52.186;5.948;2022-11-14T05:34:35;16.19;;;9.37;;
15502;SDS011;7853;52.186;5.948;2022-11-14T05:35:35;14.64;;;8.93;;
15502;SDS011;7853;52.186;5.948;2022-11-14T05:36:35;15.68;;;9.43;;
15502;SDS011;7853;52.186;5.948;2022-11-14T05:37:35;15.40;;;9.43;;
15502;SDS011;7853;52.186;5.948;2022-11-14T05:38:35;15.26;;;9.44;;
15502;SDS011;7853;52.186;5.948;2022-11-14T05:39:35;14.43;;;9.17;;
15502;SDS011;7853;52.186;5.948;2022-11-14T05:40:35;15.42;;;9.74;;
15502;SDS011;7853;52.186;5.948;2022-11-14T05:41:35;16.12;;;9.63;;
15502;SDS011;7853;52.186;5.948;2022-11-14T05:42:35;15.80;;;9.43;;
15502;SDS011;7853;52.186;5.948;2022-11-14T05:43:34;15.88;;;9.85;;
15502;SDS011;7853;52.186;5.948;2022-11-14T05:44:35;15.19;;;9.34;;
15502;SDS011;7853;52.186;5.948;2022-11-14T05:45:35;15.70;;;9.59;;
15502;SDS011;7853;52.186;5.948;2022-11-14T05:46:35;15.92;;;9.66;;
15502;SDS011;7853;52.186;5.948;2022-11-14T05:47:35;16.09;;;9.79;;
15502;SDS011;7853;52.186;5.948;2022-11-14T05:48:35;16.46;;;9.76;;
15502;SDS011;7853;52.186;5.948;2022-11-14T05:49:35;16.69;;;9.98;;
15502;SDS011;7853;52.186;5.948;2022-11-14T05:50:35;16.83;;;9.88;;
15502;SDS011;7853;52.186;5.948;2022-11-14T05:51:35;16.11;;;9.63;;
15502;SDS011;7853;52.186;5.948;2022-11-14T05:52:35;15.59;;;9.34;;
15502;SDS011;7853;52.186;5.948;2022-11-14T05:53:34;14.77;;;9.32;;
15502;SDS011;7853;52.186;5.948;2022-11-14T05:54:35;15.68;;;9.58;;
15502;SDS011;7853;52.186;5.948;2022-11-14T05:55:35;14.30;;;9.17;;
15502;SDS011;7853;52.186;5.948;2022-11-14T05:56:35;15.25;;;9.51;;